createdAt,value
2018-05-29T00:02:18.507Z,8.75
2018-05-29T00:04:46.043Z,8.80
2018-05-29T00:07:14.349Z,8.82
2018-05-29T00:09:41.918Z,8.95
2018-05-29T00:12:09.556Z,8.88
2018-05-29T00:14:37.230Z,8.18
2018-05-29T00:17:06.736Z,8.73
2018-05-29T00:19:34.335Z,8.85
2018-05-29T00:22:01.874Z,8.25
2018-05-29T00:24:29.377Z,8.73
2018-05-29T00:26:57.628Z,8.98
2018-05-29T00:29:26.496Z,9.13
2018-05-29T00:31:54.037Z,8.38
2018-05-29T00:34:21.551Z,9.13
2018-05-29T00:36:49.306Z,8.30
2018-05-29T00:39:16.818Z,9.05
2018-05-29T00:41:44.879Z,8.27
2018-05-29T00:44:13.193Z,8.10
2018-05-29T00:46:40.672Z,8.55
2018-05-29T00:49:08.236Z,8.35
2018-05-29T00:51:36.749Z,8.63
2018-05-29T00:54:05.099Z,9.52
2018-05-29T00:56:32.660Z,9.18
2018-05-29T00:59:00.140Z,9.15
2018-05-29T01:01:28.815Z,8.82
2018-05-29T01:03:57.277Z,9.15
2018-05-29T01:06:25.354Z,9.13
2018-05-29T01:08:54.148Z,8.63
2018-05-29T01:11:22.910Z,8.60
2018-05-29T01:13:50.662Z,8.73
2018-05-29T01:16:18.156Z,8.38
2018-05-29T01:18:45.615Z,8.65
2018-05-29T01:21:13.981Z,8.77
2018-05-29T01:23:41.449Z,8.52
2018-05-29T01:26:08.920Z,8.52
2018-05-29T01:28:37.328Z,8.65
2018-05-29T01:31:04.838Z,8.82
2018-05-29T01:33:32.721Z,8.18
2018-05-29T01:36:01.019Z,9.25
2018-05-29T01:38:29.252Z,9.05
2018-05-29T01:40:56.770Z,8.52
2018-05-29T01:43:24.693Z,7.55
2018-05-29T01:45:52.284Z,8.80
2018-05-29T01:48:19.852Z,8.35
2018-05-29T01:50:47.373Z,8.85
2018-05-29T01:53:16.223Z,8.90
2018-05-29T01:55:44.600Z,8.13
2018-05-29T01:58:12.721Z,8.05
2018-05-29T02:00:40.970Z,8.18
2018-05-29T02:03:08.674Z,8.65
2018-05-29T02:05:37.033Z,8.32
2018-05-29T02:08:05.284Z,9.07
2018-05-29T02:10:33.283Z,9.02
2018-05-29T02:13:02.436Z,9.13
2018-05-29T02:15:31.369Z,8.77
2018-05-29T02:17:59.612Z,9.80
2018-05-29T02:20:27.143Z,9.10
2018-05-29T02:22:55.257Z,10.18
2018-05-29T02:25:23.004Z,9.95
2018-05-29T02:27:50.483Z,9.65
2018-05-29T02:30:17.960Z,10.18
2018-05-29T02:32:46.196Z,9.68
2018-05-29T02:35:14.052Z,9.38
2018-05-29T02:37:42.159Z,10.43
2018-05-29T02:40:10.192Z,9.68
2018-05-29T02:42:38.458Z,9.40
2018-05-29T02:45:05.998Z,10.20
2018-05-29T02:47:33.920Z,11.32
2018-05-29T02:50:02.965Z,10.23
2018-05-29T02:52:30.424Z,9.88
2018-05-29T02:54:57.933Z,9.38
2018-05-29T02:57:25.404Z,9.48
2018-05-29T02:59:54.161Z,9.85
2018-05-29T03:02:21.691Z,10.23
2018-05-29T03:04:49.751Z,10.43
2018-05-29T03:07:17.223Z,10.45
2018-05-29T03:09:44.724Z,9.77
2018-05-29T03:12:12.311Z,9.68
2018-05-29T03:14:40.569Z,9.57
2018-05-29T03:17:08.019Z,9.80
2018-05-29T03:19:35.674Z,9.73
2018-05-29T03:22:04.322Z,9.48
2018-05-29T03:24:31.820Z,9.88
2018-05-29T03:26:59.301Z,9.85
2018-05-29T03:29:28.300Z,10.10
2018-05-29T03:31:56.531Z,10.50
2018-05-29T03:34:24.067Z,9.60
2018-05-29T03:36:51.488Z,10.10
2018-05-29T03:39:19.999Z,10.07
2018-05-29T03:41:47.478Z,9.18
2018-05-29T03:44:15.075Z,10.77
2018-05-29T03:46:42.686Z,10.15
2018-05-29T03:49:10.175Z,10.65
2018-05-29T03:51:39.416Z,9.57
2018-05-29T03:54:08.416Z,10.13
2018-05-29T03:56:35.957Z,10.93
2018-05-29T03:59:04.242Z,10.10
2018-05-29T04:01:32.017Z,10.13
2018-05-29T04:03:59.598Z,9.75
2018-05-29T04:06:29.077Z,9.38
2018-05-29T04:08:57.319Z,9.57
2018-05-29T04:11:25.338Z,9.30
2018-05-29T04:13:54.707Z,9.95
2018-05-29T04:16:22.702Z,10.43
2018-05-29T04:18:50.317Z,9.88
2018-05-29T04:21:18.219Z,9.65
2018-05-29T04:23:46.610Z,10.05
2018-05-29T04:26:15.125Z,9.48
2018-05-29T04:28:43.283Z,9.75
2018-05-29T04:31:10.926Z,10.30
2018-05-29T04:33:38.504Z,9.43
2018-05-29T04:36:06.255Z,10.23
2018-05-29T04:38:33.828Z,9.23
2018-05-29T04:41:01.327Z,9.25
2018-05-29T04:43:28.786Z,9.57
2018-05-29T04:45:56.276Z,8.63
2018-05-29T04:48:25.317Z,9.13
2018-05-29T04:50:53.260Z,7.95
2018-05-29T04:53:20.767Z,8.10
2018-05-29T04:55:48.300Z,8.23
2018-05-29T04:58:16.251Z,8.15
2018-05-29T05:00:44.032Z,8.00
2018-05-29T05:03:11.509Z,9.05
2018-05-29T05:05:39.030Z,8.32
2018-05-29T05:08:06.506Z,8.70
2018-05-29T05:10:34.421Z,8.32
2018-05-29T05:13:03.107Z,9.25
2018-05-29T05:15:31.330Z,8.85
2018-05-29T05:17:58.797Z,8.82
2018-05-29T05:20:26.251Z,8.00
2018-05-29T05:22:53.731Z,8.20
2018-05-29T05:25:21.300Z,8.95
2018-05-29T05:27:48.770Z,8.25
2018-05-29T05:30:17.023Z,8.95
2018-05-29T05:32:44.524Z,8.40
2018-05-29T05:35:11.997Z,8.60
2018-05-29T05:37:39.452Z,9.63
2018-05-29T05:40:07.000Z,9.50
2018-05-29T05:42:34.463Z,9.45
2018-05-29T05:45:01.941Z,11.82
2018-05-29T05:47:29.564Z,11.38
2018-05-29T05:49:57.227Z,11.90
2018-05-29T05:52:25.460Z,11.30
2018-05-29T05:54:52.947Z,12.20
2018-05-29T05:57:21.295Z,12.25
2018-05-29T05:59:48.765Z,12.27
2018-05-29T06:02:16.271Z,11.77
2018-05-29T06:04:44.065Z,11.93
2018-05-29T06:07:12.924Z,10.98
2018-05-29T06:09:40.899Z,11.60
2018-05-29T06:12:08.500Z,11.32
2018-05-29T06:14:36.092Z,11.43
2018-05-29T06:17:04.353Z,11.20
2018-05-29T06:19:32.780Z,11.48
2018-05-29T06:22:00.702Z,11.20
2018-05-29T06:24:28.354Z,11.98
2018-05-29T06:26:56.905Z,10.23
2018-05-29T06:29:25.076Z,11.40
2018-05-29T06:31:52.616Z,11.93
2018-05-29T06:34:20.730Z,12.82
2018-05-29T06:36:48.667Z,10.20
2018-05-29T06:39:16.637Z,11.23
2018-05-29T06:41:45.374Z,11.23
2018-05-29T06:44:12.922Z,11.10
2018-05-29T06:46:40.836Z,10.20
2018-05-29T06:49:08.366Z,11.43
2018-05-29T06:51:36.902Z,9.10
2018-05-29T06:54:04.365Z,9.82
2018-05-29T06:56:31.839Z,9.38
2018-05-29T06:58:59.315Z,8.23
2018-05-29T07:01:27.572Z,10.45
2018-05-29T07:03:55.093Z,8.63
2018-05-29T07:06:23.409Z,9.73
2018-05-29T07:08:50.869Z,9.88
2018-05-29T07:11:18.379Z,10.77
2018-05-29T07:13:45.864Z,9.93
2018-05-29T07:16:13.379Z,10.57
2018-05-29T07:18:41.739Z,9.43
2018-05-29T07:21:10.024Z,8.55
2018-05-29T07:23:38.244Z,9.15
2018-05-29T07:26:06.096Z,9.50
2018-05-29T07:28:33.558Z,9.45
2018-05-29T07:31:01.076Z,8.25
2018-05-29T07:33:29.827Z,8.77
2018-05-29T07:35:57.361Z,9.77
2018-05-29T07:38:24.855Z,10.15
2018-05-29T07:40:52.327Z,8.88
2018-05-29T07:43:19.811Z,9.73
2018-05-29T07:45:48.054Z,7.62
2018-05-29T07:48:15.508Z,8.65
2018-05-29T07:50:43.432Z,7.95
2018-05-29T07:53:11.299Z,8.27
2018-05-29T07:55:39.357Z,9.52
2018-05-29T07:58:09.476Z,9.98
2018-05-29T08:00:37.012Z,11.02
2018-05-29T08:03:04.459Z,8.75
2018-05-29T08:05:32.005Z,10.88
2018-05-29T08:07:59.491Z,13.05
2018-05-29T08:10:27.768Z,11.32
2018-05-29T08:12:56.016Z,12.98
2018-05-29T08:15:23.500Z,10.80
2018-05-29T08:17:52.441Z,12.77
2018-05-29T08:20:20.447Z,11.18
2018-05-29T08:22:50.729Z,11.55
2018-05-29T08:25:18.207Z,12.45
2018-05-29T08:27:49.326Z,15.10
2018-05-29T08:30:16.812Z,13.62
2018-05-29T08:32:44.339Z,11.43
2018-05-29T08:35:11.821Z,12.60
2018-05-29T08:37:39.294Z,14.43
2018-05-29T08:40:06.752Z,11.25
2018-05-29T08:42:34.308Z,10.73
2018-05-29T08:45:03.301Z,11.32
2018-05-29T08:47:30.767Z,9.98
2018-05-29T08:49:58.791Z,13.18
2018-05-29T08:52:26.735Z,12.70
2018-05-29T08:54:54.284Z,11.80
2018-05-29T08:57:22.575Z,14.45
2018-05-29T08:59:50.019Z,13.43
2018-05-29T09:02:18.268Z,13.50
2018-05-29T09:04:45.724Z,12.32
2018-05-29T09:07:13.280Z,13.15
2018-05-29T09:09:40.867Z,11.80
2018-05-29T09:12:09.154Z,10.75
2018-05-29T09:14:37.663Z,12.45
2018-05-29T09:17:05.136Z,12.88
2018-05-29T09:19:32.623Z,11.57
2018-05-29T09:22:00.656Z,11.07
2018-05-29T09:24:28.546Z,10.07
2018-05-29T09:26:56.041Z,13.32
2018-05-29T09:29:24.319Z,11.50
2018-05-29T09:31:52.575Z,9.88
2018-05-29T09:34:20.056Z,11.65
2018-05-29T09:36:48.295Z,11.00
2018-05-29T09:39:15.775Z,12.18
2018-05-29T09:41:43.236Z,10.80
2018-05-29T09:44:11.503Z,10.85
2018-05-29T09:46:39.764Z,8.68
2018-05-29T09:49:07.997Z,10.80
2018-05-29T09:51:35.525Z,10.98
2018-05-29T09:54:03.771Z,10.93
2018-05-29T09:56:31.223Z,11.15
2018-05-29T09:58:58.960Z,10.43
2018-05-29T10:01:26.679Z,9.38
2018-05-29T10:03:54.143Z,12.30
2018-05-29T10:06:22.392Z,12.20
2018-05-29T10:08:49.931Z,10.90
2018-05-29T10:11:18.017Z,9.57
2018-05-29T10:13:45.584Z,10.13
2018-05-29T10:16:13.633Z,10.27
2018-05-29T10:18:41.266Z,10.45
2018-05-29T10:21:08.746Z,8.88
2018-05-29T10:23:36.411Z,11.05
2018-05-29T10:26:04.467Z,9.63
2018-05-29T10:28:31.992Z,10.68
2018-05-29T10:31:00.426Z,10.38
2018-05-29T10:33:28.842Z,8.77
2018-05-29T10:35:57.370Z,9.02
2018-05-29T10:38:25.714Z,10.52
2018-05-29T10:40:53.948Z,9.10
2018-05-29T10:43:21.407Z,9.23
2018-05-29T10:45:48.875Z,9.35
2018-05-29T10:48:16.336Z,8.65
2018-05-29T10:50:44.160Z,8.73
2018-05-29T10:53:11.654Z,9.45
2018-05-29T10:55:39.339Z,9.52
2018-05-29T10:58:06.843Z,9.65
2018-05-29T11:00:34.348Z,8.85
2018-05-29T11:03:02.656Z,8.68
2018-05-29T11:05:31.074Z,8.98
2018-05-29T11:07:58.609Z,9.15
2018-05-29T11:10:26.053Z,8.00
2018-05-29T11:12:53.566Z,9.27
2018-05-29T11:15:21.047Z,8.43
2018-05-29T11:17:49.268Z,8.57
2018-05-29T11:20:16.763Z,10.25
2018-05-29T11:22:44.997Z,8.88
2018-05-29T11:25:12.521Z,9.10
2018-05-29T11:27:40.841Z,9.63
2018-05-29T11:30:08.355Z,8.20
2018-05-29T11:32:36.635Z,8.95
2018-05-29T11:35:05.564Z,8.50
2018-05-29T11:37:33.288Z,9.45
2018-05-29T11:40:01.553Z,8.93
2018-05-29T11:42:29.054Z,9.07
2018-05-29T11:44:57.232Z,8.10
2018-05-29T11:47:24.765Z,8.05
2018-05-29T11:49:53.270Z,8.35
2018-05-29T11:52:20.730Z,7.62
2018-05-29T11:54:48.207Z,8.20
2018-05-29T11:57:15.724Z,8.43
2018-05-29T11:59:44.220Z,7.85
2018-05-29T12:02:12.291Z,7.15
2018-05-29T12:04:39.912Z,8.15
2018-05-29T12:07:08.906Z,8.07
2018-05-29T12:09:36.459Z,7.90
2018-05-29T12:15:02.467Z,8.07
2018-05-29T12:17:29.941Z,7.70
2018-05-29T12:19:57.426Z,9.07
2018-05-29T12:22:24.920Z,8.07
2018-05-29T12:24:52.474Z,7.43
2018-05-29T12:27:20.109Z,7.90
2018-05-29T12:29:49.067Z,7.53
2018-05-29T12:32:16.525Z,7.95
2018-05-29T12:34:44.001Z,8.23
2018-05-29T12:37:11.482Z,10.52
2018-05-29T12:39:39.738Z,9.10
2018-05-29T12:42:07.195Z,7.97
2018-05-29T12:44:35.164Z,8.40
2018-05-29T12:47:02.740Z,8.65
2018-05-29T12:49:31.406Z,8.02
2018-05-29T12:51:59.660Z,7.50
2018-05-29T12:54:27.563Z,7.07
2018-05-29T12:56:55.039Z,7.45
2018-05-29T12:59:23.261Z,7.68
2018-05-29T13:01:50.761Z,7.10
2018-05-29T13:04:18.979Z,7.28
2018-05-29T13:06:46.495Z,7.43
2018-05-29T13:09:14.748Z,7.43
2018-05-29T13:11:42.331Z,6.55
2018-05-29T13:14:10.608Z,7.37
2018-05-29T13:16:39.381Z,6.68
2018-05-29T13:19:06.867Z,7.12
2018-05-29T13:21:35.120Z,6.97
2018-05-29T13:24:03.371Z,6.55
2018-05-29T13:26:31.438Z,6.80
2018-05-29T13:28:59.013Z,7.60
2018-05-29T13:31:26.527Z,7.85
2018-05-29T13:33:54.286Z,7.20
2018-05-29T13:36:21.756Z,8.20
2018-05-29T13:38:49.627Z,7.05
2018-05-29T13:41:18.024Z,7.05
2018-05-29T13:43:45.601Z,7.97
2018-05-29T13:46:13.128Z,6.82
2018-05-29T13:48:40.648Z,6.43
2018-05-29T13:51:08.946Z,6.60
2018-05-29T13:53:37.701Z,6.57
2018-05-29T13:56:06.715Z,6.70
2018-05-29T13:58:35.675Z,6.70
2018-05-29T14:01:03.199Z,6.68
2018-05-29T14:03:30.685Z,5.97
2018-05-29T14:05:58.154Z,5.85
2018-05-29T14:08:26.574Z,5.78
2018-05-29T14:10:54.263Z,6.03
2018-05-29T14:13:21.750Z,6.50
2018-05-29T14:15:49.212Z,5.65
2018-05-29T14:18:16.701Z,5.75
2018-05-29T14:20:44.174Z,6.43
2018-05-29T14:23:11.801Z,6.30
2018-05-29T14:25:40.030Z,6.53
2018-05-29T14:28:08.262Z,5.97
2018-05-29T14:30:35.777Z,6.62
2018-05-29T14:33:03.260Z,6.60
2018-05-29T14:35:31.125Z,7.05
2018-05-29T14:37:59.561Z,6.28
2018-05-29T14:40:27.127Z,6.93
2018-05-29T14:42:56.126Z,6.97
2018-05-29T14:45:23.669Z,6.43
2018-05-29T14:47:51.813Z,6.55
2018-05-29T14:50:20.111Z,6.75
2018-05-29T14:52:47.604Z,6.72
2018-05-29T14:55:15.085Z,6.68
2018-05-29T14:57:42.711Z,5.95
2018-05-29T15:00:10.184Z,6.35
2018-05-29T15:02:42.325Z,6.72
2018-05-29T15:05:10.233Z,6.18
2018-05-29T15:07:37.725Z,6.57
2018-05-29T15:10:05.636Z,6.65
2018-05-29T15:12:33.118Z,6.65
2018-05-29T15:15:00.656Z,6.15
2018-05-29T15:17:28.552Z,6.47
2018-05-29T15:19:56.780Z,6.28
2018-05-29T15:22:25.133Z,6.20
2018-05-29T15:24:53.528Z,6.32
2018-05-29T15:27:22.108Z,5.93
2018-05-29T15:29:49.616Z,6.55
2018-05-29T15:32:17.220Z,6.87
2018-05-29T15:34:44.720Z,6.80
2018-05-29T15:37:13.703Z,6.65
2018-05-29T15:39:41.212Z,6.15
2018-05-29T15:42:09.470Z,7.20
2018-05-29T15:44:36.968Z,6.72
2018-05-29T15:47:04.502Z,7.18
2018-05-29T15:49:32.742Z,6.90
2018-05-29T15:52:00.233Z,7.07
2018-05-29T15:54:28.739Z,7.15
2018-05-29T15:56:56.164Z,6.68
2018-05-29T15:59:24.412Z,7.25
2018-05-29T16:01:52.211Z,7.93
2018-05-29T16:04:20.506Z,7.57
2018-05-29T16:06:48.469Z,7.78
2018-05-29T16:09:16.794Z,6.30
2018-05-29T16:14:19.703Z,6.82
2018-05-29T16:16:47.208Z,7.15
2018-05-29T16:19:16.698Z,7.50
2018-05-29T16:21:45.572Z,8.13
2018-05-29T16:24:13.095Z,7.07
2018-05-29T16:26:40.585Z,6.50
2018-05-29T16:29:08.064Z,6.80
2018-05-29T16:31:36.338Z,7.12
2018-05-29T16:34:05.242Z,7.15
2018-05-29T16:36:33.754Z,7.12
2018-05-29T16:39:01.244Z,6.28
2018-05-29T16:41:29.241Z,6.60
2018-05-29T16:43:57.516Z,6.65
2018-05-29T16:46:33.034Z,7.40
2018-05-29T16:49:00.617Z,6.25
2018-05-29T16:51:35.555Z,6.70
2018-05-29T16:54:03.815Z,6.05
2018-05-29T16:56:31.270Z,6.10
2018-05-29T16:58:58.758Z,6.40
2018-05-29T17:01:26.982Z,5.62
2018-05-29T17:03:59.291Z,6.12
2018-05-29T17:06:27.514Z,5.80
2018-05-29T17:08:55.496Z,6.18
2018-05-29T17:11:24.311Z,5.68
2018-05-29T17:13:52.279Z,5.40
2018-05-29T17:16:19.791Z,5.35
2018-05-29T17:18:47.256Z,6.07
2018-05-29T17:21:14.740Z,5.80
2018-05-29T17:23:42.304Z,5.50
2018-05-29T17:26:09.760Z,5.65
2018-05-29T17:28:37.660Z,5.78
2018-05-29T17:31:05.883Z,5.22
2018-05-29T17:33:34.112Z,5.87
2018-05-29T17:36:02.399Z,5.22
2018-05-29T17:38:30.336Z,5.57
2018-05-29T17:40:57.787Z,5.28
2018-05-29T17:43:25.284Z,5.30
2018-05-29T17:45:52.776Z,5.75
2018-05-29T17:48:20.358Z,4.93
2018-05-29T17:50:47.882Z,4.57
2018-05-29T17:53:15.815Z,5.28
2018-05-29T17:55:44.128Z,4.95
2018-05-29T17:58:11.621Z,4.87
2018-05-29T18:00:39.645Z,4.75
2018-05-29T18:03:07.185Z,5.45
2018-05-29T18:05:35.464Z,5.22
2018-05-29T18:08:04.093Z,5.57
2018-05-29T18:10:31.895Z,5.05
2018-05-29T18:13:00.148Z,5.78
2018-05-29T18:15:27.605Z,5.53
2018-05-29T18:17:55.090Z,5.28
2018-05-29T18:20:23.727Z,4.70
2018-05-29T18:22:51.203Z,5.78
2018-05-29T18:25:19.279Z,4.95
2018-05-29T18:27:46.736Z,5.43
2018-05-29T18:30:14.212Z,5.85
2018-05-29T18:32:41.686Z,5.60
2018-05-29T18:35:09.993Z,5.82
2018-05-29T18:37:37.506Z,5.20
2018-05-29T18:40:05.013Z,5.30
2018-05-29T18:42:32.496Z,5.65
2018-05-29T18:44:59.964Z,5.20
2018-05-29T18:47:27.559Z,5.95
2018-05-29T18:49:55.846Z,6.80
2018-05-29T18:52:23.326Z,5.97
2018-05-29T18:54:50.792Z,6.07
2018-05-29T18:57:18.719Z,5.78
2018-05-29T18:59:47.079Z,5.47
2018-05-29T19:02:15.320Z,6.55
2018-05-29T19:04:42.833Z,5.50
2018-05-29T19:07:10.691Z,5.80
2018-05-29T19:09:39.759Z,6.00
2018-05-29T19:12:07.248Z,5.97
2018-05-29T19:14:35.540Z,5.60
2018-05-29T19:17:03.109Z,6.20
2018-05-29T19:19:30.554Z,6.20
2018-05-29T19:21:58.014Z,6.35
2018-05-29T19:24:25.566Z,6.93
2018-05-29T19:26:54.096Z,5.55
2018-05-29T19:29:21.546Z,6.00
2018-05-29T19:31:49.028Z,5.65
2018-05-29T19:34:17.099Z,6.07
2018-05-29T19:36:44.595Z,6.50
2018-05-29T19:39:12.127Z,6.18
2018-05-29T19:41:40.353Z,6.00
2018-05-29T19:44:09.382Z,6.65
2018-05-29T19:46:36.859Z,6.20
2018-05-29T19:49:05.134Z,6.60
2018-05-29T19:51:36.333Z,6.50
2018-05-29T19:54:03.826Z,5.93
2018-05-29T19:56:31.301Z,6.12
2018-05-29T19:58:59.603Z,6.18
2018-05-29T20:01:27.079Z,6.47
2018-05-29T20:03:54.567Z,6.55
2018-05-29T20:06:22.124Z,6.37
2018-05-29T20:08:49.595Z,6.32
2018-05-29T20:11:17.096Z,6.47
2018-05-29T20:13:44.809Z,6.68
2018-05-29T20:16:12.286Z,6.53
2018-05-29T20:18:40.698Z,6.45
2018-05-29T20:21:08.500Z,5.75
2018-05-29T20:23:35.947Z,6.53
2018-05-29T20:26:03.503Z,7.00
2018-05-29T20:28:34.513Z,6.60
2018-05-29T20:31:02.952Z,6.90
2018-05-29T20:33:30.436Z,6.43
2018-05-29T20:35:58.664Z,6.85
2018-05-29T20:38:26.592Z,6.80
2018-05-29T20:40:54.099Z,6.57
2018-05-29T20:43:22.168Z,6.53
2018-05-29T20:45:50.223Z,6.43
2018-05-29T20:48:22.331Z,6.10
2018-05-29T20:50:54.216Z,6.32
2018-05-29T20:53:21.681Z,6.50
2018-05-29T20:55:49.275Z,5.87
2018-05-29T20:58:16.843Z,6.32
2018-05-29T21:00:44.380Z,6.55
2018-05-29T21:03:11.952Z,6.60
2018-05-29T21:05:40.225Z,6.37
2018-05-29T21:08:07.711Z,6.25
2018-05-29T21:10:35.258Z,6.50
2018-05-29T21:13:02.875Z,5.95
2018-05-29T21:15:30.441Z,5.60
2018-05-29T21:17:57.937Z,6.37
2018-05-29T21:20:26.044Z,6.68
2018-05-29T21:22:54.853Z,6.35
2018-05-29T21:25:22.340Z,5.80
2018-05-29T21:27:49.976Z,5.78
2018-05-29T21:30:17.542Z,5.95
2018-05-29T21:32:45.403Z,6.18
2018-05-29T21:35:13.516Z,5.95
2018-05-29T21:37:41.176Z,6.57
2018-05-29T21:40:08.699Z,6.57
2018-05-29T21:42:36.162Z,6.68
2018-05-29T21:47:36.951Z,7.43
2018-05-29T21:50:04.557Z,6.70
2018-05-29T21:52:32.099Z,6.43
2018-05-29T21:55:00.507Z,6.40
2018-05-29T21:57:28.040Z,7.10
2018-05-29T21:59:56.715Z,6.80
2018-05-29T22:02:24.215Z,6.50
2018-05-29T22:04:51.791Z,6.43
2018-05-29T22:07:19.899Z,6.25
2018-05-29T22:09:47.798Z,6.00
2018-05-29T22:12:16.224Z,5.72
2018-05-29T22:14:43.889Z,5.90
2018-05-29T22:17:11.834Z,6.10
2018-05-29T22:19:40.142Z,6.78
2018-05-29T22:22:07.805Z,6.78
2018-05-29T22:24:35.653Z,5.90
2018-05-29T22:27:04.310Z,6.95
2018-05-29T22:29:31.870Z,6.80
2018-05-29T22:31:59.360Z,6.70
2018-05-29T22:34:27.264Z,7.15
2018-05-29T22:39:30.236Z,7.20
2018-05-29T22:41:57.777Z,8.07
2018-05-29T22:44:25.260Z,8.68
2018-05-29T22:46:52.736Z,7.75
2018-05-29T22:49:21.008Z,9.15
2018-05-29T22:51:48.477Z,8.77
2018-05-29T22:54:16.725Z,8.32
2018-05-29T22:56:44.241Z,8.20
2018-05-29T22:59:11.708Z,9.00
2018-05-29T23:01:39.191Z,8.90
2018-05-29T23:04:06.669Z,9.00
2018-05-29T23:06:34.144Z,8.95
2018-05-29T23:09:03.245Z,9.00
2018-05-29T23:11:31.491Z,9.27
2018-05-29T23:13:58.996Z,9.23
2018-05-29T23:16:26.472Z,8.27
2018-05-29T23:18:53.944Z,8.18
2018-05-29T23:21:21.527Z,9.73
2018-05-29T23:23:49.037Z,8.80
2018-05-29T23:26:16.515Z,8.75
2018-05-29T23:28:43.996Z,8.57
2018-05-29T23:31:11.452Z,9.13
2018-05-29T23:33:38.908Z,8.98
2018-05-29T23:36:06.784Z,8.88
2018-05-29T23:38:34.242Z,8.82
2018-05-29T23:41:01.709Z,9.90
2018-05-29T23:43:29.960Z,8.65
2018-05-29T23:45:57.425Z,8.85
2018-05-29T23:48:24.886Z,9.10
2018-05-29T23:50:52.920Z,9.27
2018-05-29T23:53:20.384Z,10.45
2018-05-29T23:55:48.465Z,10.05
2018-05-29T23:58:15.933Z,9.85
